Time;durP1;ratioP1;P1;durP2;ratioP2;P2;SDS_P1;SDS_P2;PMS_P1;PMS_P2;Temp;Humidity;BMP_temperature;BMP_pressure;BME280_temperature;BME280_humidity;BME280_pressure;Samples;Min_cycle;Max_cycle;Signal;HPM_P1;HPM_P2
2023/12/04 00:00:02;;;;;;;4.88;4.00;;;15.80;36.00;;;;;;6247931;22;45304;-64
2023/12/04 00:02:29;;;;;;;5.32;3.90;;;15.80;36.00;;;;;;6248417;22;45313;-62
2023/12/04 00:04:56;;;;;;;3.83;3.40;;;15.80;36.00;;;;;;6248334;22;45182;-62
2023/12/04 00:07:23;;;;;;;4.55;3.45;;;15.80;36.00;;;;;;6248063;22;47252;-62
2023/12/04 00:09:51;;;;;;;3.60;3.03;;;15.80;36.00;;;;;;6247736;22;45265;-62
2023/12/04 00:12:18;;;;;;;4.63;3.75;;;15.80;36.00;;;;;;6248255;22;45275;-62
2023/12/04 00:14:45;;;;;;;4.10;3.70;;;15.80;36.00;;;;;;6248235;22;45342;-62
2023/12/04 00:17:11;;;;;;;4.00;3.60;;;15.70;36.00;;;;;;6247803;22;47280;-62
2023/12/04 00:19:38;;;;;;;4.13;3.05;;;15.70;36.00;;;;;;6247889;22;45282;-63
2023/12/04 00:22:05;;;;;;;5.13;3.50;;;15.70;36.00;;;;;;6247898;22;45475;-62
2023/12/04 00:24:32;;;;;;;4.40;3.90;;;15.70;36.10;;;;;;6248185;22;45382;-61
2023/12/04 00:27:00;;;;;;;4.13;3.05;;;15.70;36.10;;;;;;6247620;22;45179;-61
2023/12/04 00:29:27;;;;;;;4.60;3.33;;;15.60;36.00;;;;;;6247860;22;45137;-62
2023/12/04 00:31:54;;;;;;;4.00;3.42;;;15.70;36.10;;;;;;6247860;22;45237;-61
2023/12/04 00:34:21;;;;;;;5.03;4.03;;;15.60;36.00;;;;;;6247935;22;45324;-62
2023/12/04 00:36:47;;;;;;;4.68;4.15;;;15.70;36.10;;;;;;6247498;22;46312;-62
2023/12/04 00:39:14;;;;;;;4.82;3.75;;;15.60;36.10;;;;;;6247621;22;45258;-62
2023/12/04 00:41:41;;;;;;;4.40;3.83;;;15.60;36.10;;;;;;6247744;22;45286;-62
2023/12/04 00:44:09;;;;;;;5.82;4.43;;;15.60;36.00;;;;;;6247897;22;45261;-62
2023/12/04 00:46:36;;;;;;;4.78;3.88;;;15.60;36.00;;;;;;6247387;22;47292;-62
2023/12/04 00:49:03;;;;;;;4.93;3.33;;;15.60;36.00;;;;;;6247512;22;45424;-62
2023/12/04 00:51:30;;;;;;;5.30;3.58;;;15.60;36.00;;;;;;6247840;22;45328;-62
2023/12/04 00:53:56;;;;;;;4.05;3.75;;;15.60;36.00;;;;;;6247903;22;45198;-62
2023/12/04 00:56:23;;;;;;;4.25;3.50;;;15.60;36.00;;;;;;6247227;22;45267;-62
2023/12/04 00:58:50;;;;;;;3.55;3.17;;;15.60;36.00;;;;;;6216828;22;45255;-62
2023/12/04 01:01:18;;;;;;;4.60;3.30;;;15.60;36.00;;;;;;6217099;22;45372;-62
2023/12/04 01:03:45;;;;;;;5.68;3.47;;;15.60;36.00;;;;;;6217195;22;45328;-62
2023/12/04 01:06:22;;;;;;;4.60;3.30;;;15.60;35.90;;;;;;6216315;22;45186;-62
2023/12/04 01:08:49;;;;;;;4.78;4.28;;;15.60;35.90;;;;;;6216830;22;45211;-61
2023/12/04 01:11:16;;;;;;;6.07;4.20;;;15.60;35.90;;;;;;6216939;22;45302;-62
2023/12/04 01:13:43;;;;;;;5.25;3.58;;;15.60;35.90;;;;;;6217074;22;45381;-61
2023/12/04 01:16:10;;;;;;;5.85;4.00;;;15.60;36.00;;;;;;6216308;22;46625;-62
2023/12/04 01:18:38;;;;;;;5.15;4.45;;;15.60;36.00;;;;;;6216673;22;45255;-62
2023/12/04 01:21:05;;;;;;;5.35;4.80;;;15.60;36.00;;;;;;6217814;22;45241;-62
2023/12/04 01:23:32;;;;;;;5.13;4.63;;;15.60;36.00;;;;;;6218693;22;45309;-62
2023/12/04 01:25:59;;;;;;;5.45;4.55;;;15.60;35.90;;;;;;6217828;22;46245;-62
2023/12/04 01:28:26;;;;;;;4.55;4.15;;;15.50;36.50;;;;;;6218119;22;45254;-62
2023/12/04 01:30:51;;;;;;;5.43;4.53;;;15.50;35.90;;;;;;6218288;22;45273;-62
2023/12/04 01:33:18;;;;;;;5.97;4.03;;;15.50;35.90;;;;;;6218526;22;45247;-62
2023/12/04 01:35:46;;;;;;;4.18;3.55;;;15.50;36.00;;;;;;6217794;22;46492;-62
2023/12/04 01:38:13;;;;;;;5.07;4.45;;;15.50;36.00;;;;;;6218011;22;45358;-62
2023/12/04 01:40:40;;;;;;;4.95;4.28;;;15.50;36.00;;;;;;6218311;22;44682;-61
2023/12/04 01:43:07;;;;;;;5.65;4.70;;;15.50;36.00;;;;;;6218480;22;45254;-62
2023/12/04 01:45:34;;;;;;;5.07;4.10;;;15.50;36.00;;;;;;6217803;22;45256;-61
2023/12/04 01:48:00;;;;;;;5.28;4.10;;;15.50;36.00;;;;;;6218035;22;45238;-62
2023/12/04 01:50:27;;;;;;;5.50;4.15;;;15.40;36.00;;;;;;6218248;22;45265;-62
2023/12/04 01:52:55;;;;;;;5.45;4.38;;;15.40;36.00;;;;;;6218341;22;45250;-62
2023/12/04 01:55:22;;;;;;;5.28;4.35;;;15.40;36.00;;;;;;6217766;22;45476;-62
2023/12/04 01:57:49;;;;;;;5.57;4.60;;;15.30;36.00;;;;;;6235758;22;45206;-62
2023/12/04 02:00:18;;;;;;;6.32;5.13;;;15.30;36.00;;;;;;6248784;22;45295;-64
2023/12/04 02:02:45;;;;;;;5.93;5.15;;;15.30;36.10;;;;;;6248962;22;45245;-62
2023/12/04 02:05:12;;;;;;;6.22;4.78;;;15.30;36.10;;;;;;6248223;22;46693;-62
2023/12/04 02:07:39;;;;;;;4.70;4.20;;;15.30;36.10;;;;;;6248599;22;45123;-62
2023/12/04 02:10:08;;;;;;;4.68;4.28;;;15.30;36.10;;;;;;6248711;22;45248;-62
2023/12/04 02:12:35;;;;;;;5.45;4.38;;;15.30;36.10;;;;;;6248980;22;45495;-62
2023/12/04 02:15:02;;;;;;;6.22;3.67;;;15.30;36.20;;;;;;6248268;22;45249;-62
2023/12/04 02:17:29;;;;;;;4.90;4.40;;;15.30;36.20;;;;;;6248655;22;45268;-62
2023/12/04 02:19:57;;;;;;;5.20;4.55;;;15.30;36.20;;;;;;6248646;22;45162;-62
2023/12/04 02:22:23;;;;;;;5.05;4.53;;;15.30;36.10;;;;;;6248908;22;45511;-61
2023/12/04 02:24:52;;;;;;;5.07;4.10;;;15.30;36.10;;;;;;6248386;22;45269;-61
2023/12/04 02:27:32;;;;;;;5.28;4.43;;;15.30;36.10;;;;;;6248438;22;45203;-62
2023/12/04 02:29:59;;;;;;;4.82;4.35;;;15.30;36.10;;;;;;6248693;22;45337;-62
2023/12/04 02:32:28;;;;;;;5.22;4.10;;;15.30;36.10;;;;;;6248815;22;45325;-62
2023/12/04 02:34:55;;;;;;;4.72;4.13;;;15.30;36.10;;;;;;6248219;22;45265;-62
2023/12/04 02:37:22;;;;;;;4.85;3.90;;;15.30;36.10;;;;;;6248406;22;45265;-62
2023/12/04 02:39:52;;;;;;;5.13;4.63;;;15.30;36.70;;;;;;6248727;22;45230;-62
2023/12/04 02:42:19;;;;;;;4.70;4.22;;;15.30;36.00;;;;;;6248896;22;45178;-62
2023/12/04 02:44:46;;;;;;;4.78;4.35;;;15.30;36.00;;;;;;6248115;22;45329;-62
2023/12/04 02:47:13;;;;;;;4.60;3.78;;;15.30;36.00;;;;;;6248224;22;45281;-62
2023/12/04 02:49:39;;;;;;;5.15;3.83;;;15.30;36.00;;;;;;6248663;22;45298;-62
2023/12/04 02:52:06;;;;;;;4.13;3.72;;;15.30;36.10;;;;;;6248752;22;45262;-62
2023/12/04 02:54:33;;;;;;;4.05;3.65;;;15.30;36.00;;;;;;6248304;22;46256;-62
2023/12/04 02:57:01;;;;;;;4.68;4.18;;;15.30;36.00;;;;;;6248019;22;45049;-62
2023/12/04 02:59:28;;;;;;;4.65;4.03;;;15.30;36.00;;;;;;6248664;22;45317;-62
2023/12/04 03:01:55;;;;;;;3.95;3.50;;;15.30;36.00;;;;;;6248692;22;45349;-62
2023/12/04 03:04:21;;;;;;;4.28;3.88;;;15.30;36.00;;;;;;6248075;22;45325;-62
2023/12/04 03:06:48;;;;;;;4.78;4.18;;;15.30;36.00;;;;;;6248149;22;45189;-62
2023/12/04 03:09:15;;;;;;;4.90;4.15;;;15.30;36.00;;;;;;6248447;22;45175;-62
2023/12/04 03:11:42;;;;;;;4.13;3.80;;;15.30;36.00;;;;;;6248687;22;45401;-62
2023/12/04 03:14:10;;;;;;;6.18;4.05;;;15.30;36.70;;;;;;6248201;22;46408;-62
2023/12/04 03:16:37;;;;;;;4.20;3.78;;;15.30;36.10;;;;;;6248051;22;45387;-62
2023/12/04 03:19:04;;;;;;;3.60;3.10;;;15.20;36.10;;;;;;6248544;22;45235;-62
2023/12/04 03:21:30;;;;;;;4.28;3.78;;;15.20;36.10;;;;;;6248635;22;45174;-62
2023/12/04 03:23:57;;;;;;;4.15;3.20;;;15.30;36.10;;;;;;6248156;22;45338;-62
2023/12/04 03:26:24;;;;;;;4.25;3.50;;;15.20;36.10;;;;;;6247948;22;45353;-62
2023/12/04 03:28:51;;;;;;;3.33;3.00;;;15.20;36.10;;;;;;6248364;22;45337;-62
2023/12/04 03:31:19;;;;;;;4.60;3.97;;;15.20;36.10;;;;;;6248537;22;45419;-62
2023/12/04 03:33:46;;;;;;;4.32;3.60;;;15.20;36.10;;;;;;6247973;22;45192;-62
2023/12/04 03:36:13;;;;;;;3.67;3.25;;;15.20;36.20;;;;;;6248056;22;45262;-62
2023/12/04 03:38:39;;;;;;;4.15;3.70;;;15.10;36.80;;;;;;6248443;22;45297;-62
2023/12/04 03:41:07;;;;;;;4.18;3.45;;;15.10;36.20;;;;;;6248259;22;45393;-62
2023/12/04 03:43:34;;;;;;;4.32;3.92;;;15.10;36.30;;;;;;6247576;22;46809;-62
2023/12/04 03:46:00;;;;;;;4.15;3.55;;;15.10;36.20;;;;;;6247769;22;45199;-62
2023/12/04 03:48:28;;;;;;;3.78;3.38;;;15.10;36.30;;;;;;6248243;22;45206;-62
2023/12/04 03:50:55;;;;;;;3.75;3.38;;;15.10;36.30;;;;;;6248419;22;45443;-62
2023/12/04 03:53:22;;;;;;;4.28;3.50;;;15.10;36.30;;;;;;6247884;22;46242;-62
2023/12/04 03:55:49;;;;;;;3.75;3.42;;;15.10;36.30;;;;;;6247895;22;45218;-62
2023/12/04 03:58:16;;;;;;;4.13;3.63;;;15.10;36.30;;;;;;6247898;22;45234;-62
2023/12/04 04:00:43;;;;;;;3.78;3.38;;;15.10;36.30;;;;;;6248349;22;45281;-61
2023/12/04 04:03:10;;;;;;;3.72;3.42;;;15.20;36.30;;;;;;6247864;22;46290;-62
2023/12/04 04:05:38;;;;;;;3.47;3.15;;;15.10;36.20;;;;;;6247699;22;45344;-61
2023/12/04 04:08:07;;;;;;;4.00;3.58;;;15.20;36.30;;;;;;6248028;22;45248;-62
2023/12/04 04:10:34;;;;;;;4.00;3.55;;;15.20;36.30;;;;;;6248356;22;45495;-62
2023/12/04 04:13:01;;;;;;;3.40;3.10;;;15.20;36.10;;;;;;6247782;22;45257;-61
2023/12/04 04:15:28;;;;;;;3.38;3.08;;;15.20;36.10;;;;;;6247641;22;45324;-61
2023/12/04 04:17:55;;;;;;;3.25;2.70;;;15.30;36.00;;;;;;6248008;22;45138;-62
2023/12/04 04:20:22;;;;;;;3.50;2.72;;;15.40;35.90;;;;;;6248187;22;45107;-62
2023/12/04 04:22:50;;;;;;;2.92;2.50;;;15.50;35.80;;;;;;6247705;22;45288;-61
2023/12/04 04:25:18;;;;;;;2.83;2.63;;;15.50;35.60;;;;;;6247488;22;45273;-61
2023/12/04 04:27:45;;;;;;;4.00;3.42;;;15.60;35.50;;;;;;6247793;22;45270;-62
2023/12/04 04:30:13;;;;;;;3.70;3.13;;;15.70;35.40;;;;;;6248134;22;45337;-62
2023/12/04 04:32:40;;;;;;;3.63;2.50;;;15.80;35.30;;;;;;6247574;22;46555;-61
2023/12/04 04:35:07;;;;;;;3.65;2.90;;;15.80;35.20;;;;;;6247452;22;45367;-62
2023/12/04 04:37:35;;;;;;;3.28;2.80;;;15.90;35.10;;;;;;6248037;22;45240;-62
2023/12/04 04:40:04;;;;;;;3.88;3.05;;;15.90;35.00;;;;;;6247993;22;45189;-62
2023/12/04 04:42:30;;;;;;;3.88;2.78;;;16.00;35.00;;;;;;6247470;22;46736;-62
2023/12/04 04:44:57;;;;;;;2.72;2.45;;;16.00;34.90;;;;;;6247316;22;45270;-62
2023/12/04 04:47:24;;;;;;;3.50;2.60;;;16.10;34.90;;;;;;6247623;22;45320;-62
2023/12/04 04:49:51;;;;;;;3.53;2.90;;;16.10;34.80;;;;;;6248047;22;45187;-62
2023/12/04 04:52:17;;;;;;;2.20;2.00;;;16.20;34.70;;;;;;6247429;22;47269;-62
2023/12/04 04:54:44;;;;;;;2.60;2.38;;;16.20;34.70;;;;;;6247430;22;45573;-62
2023/12/04 04:57:13;;;;;;;2.97;2.40;;;16.20;34.60;;;;;;6248774;22;45362;-61
2023/12/04 04:59:39;;;;;;;4.38;3.00;;;16.30;34.60;;;;;;6249196;22;45412;-62
2023/12/04 05:02:06;;;;;;;3.42;2.47;;;16.30;34.50;;;;;;6248810;22;46357;-62
2023/12/04 05:04:33;;;;;;;3.08;2.60;;;16.30;34.50;;;;;;6248797;22;45083;-61
2023/12/04 05:07:00;;;;;;;2.67;2.30;;;16.30;34.50;;;;;;6249066;22;45253;-61
2023/12/04 05:09:26;;;;;;;3.75;2.53;;;16.30;34.50;;;;;;6249150;22;45257;-62
2023/12/04 05:11:53;;;;;;;3.72;2.45;;;16.40;34.40;;;;;;6248786;22;45316;-61
2023/12/04 05:14:21;;;;;;;4.43;2.42;;;16.40;34.40;;;;;;6248778;22;45333;-62
2023/12/04 05:16:48;;;;;;;2.85;2.30;;;16.40;35.00;;;;;;6248911;22;45255;-61
2023/12/04 05:19:15;;;;;;;3.10;2.13;;;16.40;35.00;;;;;;6249135;22;45364;-61
2023/12/04 05:21:42;;;;;;;3.25;2.10;;;16.40;34.30;;;;;;6248573;22;47297;-62
2023/12/04 05:24:09;;;;;;;4.45;2.60;;;16.50;34.30;;;;;;6248631;22;45261;-61
2023/12/04 05:26:35;;;;;;;5.93;2.35;;;16.50;34.30;;;;;;6248573;22;45222;-61
2023/12/04 05:29:02;;;;;;;5.50;2.30;;;16.50;34.30;;;;;;6249196;22;45360;-61
2023/12/04 05:31:30;;;;;;;3.45;2.78;;;16.50;34.30;;;;;;6248531;22;45426;-62
2023/12/04 05:33:57;;;;;;;3.13;2.10;;;16.50;34.30;;;;;;6248566;22;45361;-62
2023/12/04 05:36:24;;;;;;;3.70;2.22;;;16.50;34.30;;;;;;6248803;22;45361;-62
2023/12/04 05:38:53;;;;;;;2.47;2.20;;;16.50;34.30;;;;;;6249112;22;45116;-61
2023/12/04 05:41:20;;;;;;;3.83;2.50;;;16.50;34.30;;;;;;6248680;22;46469;-61
2023/12/04 05:43:47;;;;;;;3.33;2.03;;;16.50;34.20;;;;;;6248612;22;45315;-61
2023/12/04 05:46:13;;;;;;;3.75;2.63;;;16.50;34.30;;;;;;6248501;22;45431;-62
2023/12/04 05:48:41;;;;;;;2.97;2.33;;;16.50;34.30;;;;;;6248883;22;45473;-62
2023/12/04 05:51:08;;;;;;;7.90;2.45;;;16.50;34.20;;;;;;6248557;22;45191;-63
2023/12/04 05:53:35;;;;;;;4.65;2.20;;;16.50;34.30;;;;;;6248435;22;45404;-61
2023/12/04 05:56:02;;;;;;;3.53;2.40;;;16.50;34.30;;;;;;6248712;22;45344;-62
2023/12/04 05:58:29;;;;;;;3.70;2.72;;;16.60;34.30;;;;;;6248664;22;45262;-62
2023/12/04 06:00:56;;;;;;;3.30;2.33;;;16.60;34.30;;;;;;6248392;22;47390;-62
2023/12/04 06:03:23;;;;;;;4.07;2.78;;;16.60;34.20;;;;;;6248578;22;45142;-61
2023/12/04 06:05:51;;;;;;;5.85;2.47;;;16.60;34.20;;;;;;6248440;22;45243;-62
2023/12/04 06:08:17;;;;;;;2.80;2.60;;;16.60;34.20;;;;;;6248742;22;45363;-62
2023/12/04 06:10:44;;;;;;;4.78;2.50;;;16.70;34.70;;;;;;6248373;22;45365;-62
2023/12/04 06:13:11;;;;;;;2.70;2.47;;;16.70;34.10;;;;;;6248518;22;45214;-62
2023/12/04 06:15:38;;;;;;;4.82;2.45;;;16.70;34.10;;;;;;6248465;22;45223;-62
2023/12/04 06:18:05;;;;;;;2.80;2.33;;;16.80;34.10;;;;;;6248946;22;45187;-61
2023/12/04 06:20:32;;;;;;;2.92;2.30;;;16.80;34.00;;;;;;6248491;22;47537;-62
2023/12/04 06:23:01;;;;;;;6.78;2.80;;;16.80;34.00;;;;;;6248393;22;45304;-61
2023/12/04 06:25:28;;;;;;;3.40;2.58;;;16.80;34.00;;;;;;6248552;22;45291;-62
2023/12/04 06:27:56;;;;;;;3.15;2.05;;;16.90;34.00;;;;;;6248660;22;45720;-61
2023/12/04 06:30:23;;;;;;;4.30;2.33;;;16.90;33.90;;;;;;6248379;22;46622;-63
2023/12/04 06:32:50;;;;;;;3.20;2.42;;;16.90;33.90;;;;;;6248394;22;45222;-62
2023/12/04 06:35:18;;;;;;;2.60;2.15;;;16.90;33.80;;;;;;6248481;22;45146;-62
2023/12/04 06:37:45;;;;;;;4.22;2.30;;;16.90;33.90;;;;;;6248780;22;45207;-62
2023/12/04 06:40:14;;;;;;;4.00;2.42;;;16.90;33.90;;;;;;6248359;22;45294;-62
2023/12/04 06:42:41;;;;;;;3.30;2.80;;;16.90;33.90;;;;;;6248324;22;45269;-61
2023/12/04 06:45:09;;;;;;;2.53;2.25;;;17.00;33.90;;;;;;6248613;22;45258;-62
2023/12/04 06:47:36;;;;;;;2.92;2.40;;;17.00;33.80;;;;;;6248672;22;45317;-62
2023/12/04 06:50:03;;;;;;;3.47;2.67;;;17.00;33.80;;;;;;6248248;22;47291;-61
2023/12/04 06:52:30;;;;;;;3.00;2.45;;;17.10;33.80;;;;;;6248310;22;45269;-62
2023/12/04 06:54:57;;;;;;;4.07;2.60;;;17.10;33.70;;;;;;6248425;22;45291;-62
2023/12/04 06:57:25;;;;;;;3.38;2.63;;;17.10;33.70;;;;;;6248490;22;45074;-61
2023/12/04 06:59:52;;;;;;;3.42;2.55;;;17.10;33.70;;;;;;6248008;22;48341;-62
2023/12/04 07:02:19;;;;;;;2.67;2.42;;;17.10;33.70;;;;;;6248342;22;45367;-62
2023/12/04 07:04:46;;;;;;;4.18;2.60;;;17.10;33.60;;;;;;6248459;22;45222;-61
2023/12/04 07:07:13;;;;;;;3.83;2.80;;;17.20;33.70;;;;;;6248550;22;45241;-61
2023/12/04 07:09:39;;;;;;;3.47;2.67;;;17.20;33.70;;;;;;6248023;22;46479;-62
2023/12/04 07:12:07;;;;;;;4.97;2.80;;;17.20;33.70;;;;;;6248228;22;45348;-61
2023/12/04 07:14:37;;;;;;;3.65;2.70;;;17.20;33.60;;;;;;6248543;22;45269;-61
2023/12/04 07:17:04;;;;;;;3.88;2.72;;;17.20;33.60;;;;;;6248424;22;45533;-63
2023/12/04 07:19:31;;;;;;;5.20;2.70;;;17.20;33.60;;;;;;6247645;22;46419;-62
2023/12/04 07:21:58;;;;;;;5.47;2.70;;;17.20;33.60;;;;;;6248208;22;45408;-62
2023/12/04 07:24:26;;;;;;;3.95;3.15;;;17.20;33.60;;;;;;6247308;22;45292;-62
2023/12/04 07:26:53;;;;;;;4.70;3.40;;;17.20;33.50;;;;;;6248258;22;45384;-62
2023/12/04 07:29:20;;;;;;;4.22;3.30;;;17.20;33.40;;;;;;6247934;22;45214;-61
2023/12/04 07:31:48;;;;;;;5.22;3.10;;;17.20;34.10;;;;;;6247675;22;45328;-61
2023/12/04 07:34:15;;;;;;;3.35;3.03;;;17.20;33.70;;;;;;6248483;22;45333;-62
2023/12/04 07:36:44;;;;;;;5.93;3.17;;;17.20;33.70;;;;;;6248211;22;45428;-60
2023/12/04 07:39:10;;;;;;;5.22;3.28;;;17.20;33.50;;;;;;6235113;22;45644;-64
2023/12/04 07:41:37;;;;;;;3.67;3.22;;;17.20;33.70;;;;;;6244424;22;45424;-62
2023/12/04 07:44:05;;;;;;;4.55;3.17;;;17.20;33.70;;;;;;6244465;22;45340;-64
2023/12/04 07:46:31;;;;;;;5.22;3.35;;;17.20;33.70;;;;;;6243834;22;45206;-63
2023/12/04 07:49:00;;;;;;;4.15;3.28;;;17.30;33.60;;;;;;6243553;22;45507;-61
2023/12/04 07:51:27;;;;;;;5.53;3.20;;;17.30;33.60;;;;;;6244657;22;45336;-61
2023/12/04 07:53:54;;;;;;;4.28;3.30;;;17.40;33.60;;;;;;6244040;22;45341;-62
2023/12/04 07:56:21;;;;;;;3.80;3.20;;;17.40;34.20;;;;;;6244712;22;45309;-62
2023/12/04 07:58:48;;;;;;;4.13;2.97;;;17.40;33.50;;;;;;6243909;22;46089;-65
2023/12/04 08:01:15;;;;;;;3.60;2.92;;;17.50;33.50;;;;;;6243510;22;45309;-63
2023/12/04 08:03:42;;;;;;;3.50;2.90;;;17.50;33.40;;;;;;6244827;22;45329;-64
2023/12/04 08:06:11;;;;;;;4.10;3.08;;;17.60;33.50;;;;;;6245123;22;45372;-64
2023/12/04 08:08:38;;;;;;;4.15;3.10;;;17.60;33.50;;;;;;6243964;22;46601;-63
2023/12/04 08:11:05;;;;;;;5.45;3.28;;;17.60;33.40;;;;;;6243619;22;45278;-65
2023/12/04 08:13:32;;;;;;;7.75;3.20;;;17.70;33.40;;;;;;6244762;22;45242;-64
2023/12/04 08:16:00;;;;;;;3.33;2.90;;;17.70;33.40;;;;;;6244367;22;45607;-63
2023/12/04 08:18:27;;;;;;;2.97;2.67;;;17.70;33.40;;;;;;6244418;22;45294;-63
2023/12/04 08:20:54;;;;;;;4.93;3.20;;;17.70;33.40;;;;;;6243474;22;45245;-61
2023/12/04 08:23:22;;;;;;;3.78;2.97;;;17.70;33.40;;;;;;6244009;22;45453;-61
2023/12/04 08:25:49;;;;;;;3.45;3.15;;;17.70;33.40;;;;;;6243673;22;45339;-61
2023/12/04 08:28:16;;;;;;;4.13;2.97;;;17.70;33.50;;;;;;6243977;22;47469;-62
2023/12/04 08:30:43;;;;;;;5.22;3.22;;;17.70;33.40;;;;;;6243905;22;45330;-62
2023/12/04 08:33:09;;;;;;;5.47;3.30;;;17.70;33.40;;;;;;6246391;22;45341;-62
2023/12/04 08:35:36;;;;;;;4.55;3.10;;;17.70;33.40;;;;;;6245453;22;45516;-63
2023/12/04 08:38:03;;;;;;;6.03;3.80;;;17.70;33.50;;;;;;6244916;22;45361;-61
2023/12/04 08:40:31;;;;;;;5.10;3.65;;;17.70;33.50;;;;;;6245403;22;45532;-61
2023/12/04 08:42:58;;;;;;;5.18;3.55;;;17.70;33.50;;;;;;6245264;22;45580;-60
2023/12/04 08:45:25;;;;;;;4.65;3.13;;;17.70;33.50;;;;;;6244330;22;45195;-62
2023/12/04 08:47:52;;;;;;;4.70;3.08;;;17.70;33.50;;;;;;6246004;22;45245;-62
2023/12/04 08:50:19;;;;;;;4.05;2.72;;;17.70;33.60;;;;;;6245853;22;45392;-62
2023/12/04 08:52:46;;;;;;;3.53;2.70;;;17.70;33.70;;;;;;6244355;22;45300;-61
2023/12/04 08:55:12;;;;;;;3.75;3.13;;;17.70;33.70;;;;;;6244992;22;45371;-62
2023/12/04 08:57:41;;;;;;;4.22;3.38;;;17.70;33.70;;;;;;6244877;22;46253;-62
2023/12/04 09:00:09;;;;;;;7.93;3.20;;;17.70;33.80;;;;;;6244396;22;45480;-64
2023/12/04 09:02:36;;;;;;;3.65;3.30;;;17.70;33.80;;;;;;6244484;22;45376;-62
2023/12/04 09:05:03;;;;;;;3.83;3.17;;;17.70;33.90;;;;;;6244989;22;45489;-61
2023/12/04 09:07:29;;;;;;;5.60;4.25;;;17.60;33.80;;;;;;6245897;22;46597;-63
2023/12/04 09:09:56;;;;;;;5.53;3.15;;;17.60;33.90;;;;;;6248413;22;45292;-62
2023/12/04 09:12:23;;;;;;;6.32;4.50;;;17.60;33.90;;;;;;6248064;22;45349;-64
2023/12/04 09:14:51;;;;;;;5.28;3.80;;;17.70;34.20;;;;;;6248793;22;45356;-61
2023/12/04 09:17:18;;;;;;;8.48;4.55;;;17.90;33.70;;;;;;6248521;22;45236;-60
2023/12/04 09:19:45;;;;;;;5.18;3.35;;;18.00;33.90;;;;;;6248716;22;45214;-67
2023/12/04 09:22:12;;;;;;;10.85;4.05;;;18.00;34.00;;;;;;6248681;22;45187;-61
2023/12/04 09:24:38;;;;;;;9.75;4.07;;;18.10;33.60;;;;;;6248454;22;45171;-65
2023/12/04 09:27:06;;;;;;;11.07;3.88;;;18.20;33.70;;;;;;6248696;22;47267;-66
2023/12/04 09:29:33;;;;;;;5.88;4.05;;;18.30;33.70;;;;;;6248421;22;45240;-61
2023/12/04 09:32:01;;;;;;;5.45;3.85;;;18.30;33.70;;;;;;6248163;22;45095;-61
2023/12/04 09:34:28;;;;;;;6.25;3.85;;;18.30;33.80;;;;;;6248866;22;45269;-61
2023/12/04 09:36:55;;;;;;;6.95;3.80;;;18.30;33.80;;;;;;6248407;22;46355;-67
2023/12/04 09:39:22;;;;;;;7.82;4.00;;;18.40;33.90;;;;;;6248467;22;45423;-69
2023/12/04 09:41:49;;;;;;;5.32;3.65;;;18.50;34.30;;;;;;6248257;22;45284;-63
2023/12/04 09:44:16;;;;;;;8.27;4.30;;;18.50;33.80;;;;;;6248808;22;45294;-62
2023/12/04 09:46:42;;;;;;;4.90;3.38;;;18.50;34.00;;;;;;6247989;22;45433;-63
2023/12/04 09:49:11;;;;;;;7.82;4.05;;;18.60;34.00;;;;;;6248465;22;45303;-62
2023/12/04 09:51:38;;;;;;;6.60;4.20;;;18.50;33.90;;;;;;6249104;22;45253;-62
2023/12/04 09:54:05;;;;;;;5.57;4.00;;;18.60;34.30;;;;;;6248759;22;45372;-63
2023/12/04 09:56:32;;;;;;;11.65;6.18;;;18.50;33.90;;;;;;6247999;22;45431;-63
2023/12/04 09:59:00;;;;;;;6.05;3.78;;;18.50;34.20;;;;;;6248185;22;45270;-61
2023/12/04 10:01:27;;;;;;;8.25;4.80;;;18.60;34.30;;;;;;6248421;22;45326;-61
2023/12/04 10:03:56;;;;;;;6.60;4.20;;;18.50;34.10;;;;;;6248861;22;45235;-61
2023/12/04 10:06:25;;;;;;;12.40;4.75;;;18.40;34.10;;;;;;6247768;22;45475;-61
2023/12/04 10:08:52;;;;;;;9.60;5.20;;;18.40;34.10;;;;;;6248215;22;45262;-61
2023/12/04 10:11:19;;;;;;;6.25;4.97;;;18.40;34.80;;;;;;6248338;22;45270;-60
2023/12/04 10:13:46;;;;;;;10.68;5.00;;;18.40;34.10;;;;;;6248413;22;45208;-68
2023/12/04 10:16:12;;;;;;;5.93;4.57;;;18.40;34.70;;;;;;6247820;22;46197;-62
2023/12/04 10:18:39;;;;;;;8.88;4.88;;;18.50;34.30;;;;;;6248436;22;44810;-61
2023/12/04 10:21:07;;;;;;;7.72;4.65;;;18.50;34.90;;;;;;6248455;22;45328;-61
2023/12/04 10:23:40;;;;;;;6.63;4.45;;;18.40;34.30;;;;;;6248449;22;45386;-61
2023/12/04 10:26:07;;;;;;;7.97;4.40;;;18.40;34.30;;;;;;6248175;22;45405;-61
2023/12/04 10:28:34;;;;;;;9.52;5.18;;;18.40;34.40;;;;;;6248254;22;45288;-61
2023/12/04 10:31:01;;;;;;;5.82;4.28;;;18.40;34.40;;;;;;6248592;22;45250;-61
2023/12/04 10:33:30;;;;;;;6.30;4.32;;;18.30;34.40;;;;;;6248638;22;45293;-61
2023/12/04 10:35:57;;;;;;;7.53;4.30;;;18.30;34.50;;;;;;6248181;22;46649;-60
2023/12/04 10:38:26;;;;;;;5.50;4.28;;;18.30;34.50;;;;;;6248224;22;45204;-61
2023/12/04 10:40:55;;;;;;;9.20;4.40;;;18.20;34.50;;;;;;6248605;22;45349;-61
2023/12/04 10:43:23;;;;;;;7.25;4.22;;;18.20;34.50;;;;;;6248702;22;45246;-61
2023/12/04 10:45:50;;;;;;;8.30;5.07;;;18.20;34.50;;;;;;6247923;22;46508;-61
2023/12/04 10:48:18;;;;;;;5.90;4.25;;;18.20;35.20;;;;;;6247939;22;45243;-61
2023/12/04 10:50:45;;;;;;;7.65;4.15;;;18.20;34.60;;;;;;6248394;22;45242;-61
2023/12/04 10:53:13;;;;;;;6.55;4.40;;;18.20;34.50;;;;;;6248594;22;45406;-61
2023/12/04 10:55:40;;;;;;;10.70;4.45;;;18.20;34.60;;;;;;6247994;22;47532;-61
2023/12/04 10:58:09;;;;;;;5.85;3.80;;;18.20;34.50;;;;;;6248083;22;45253;-61
2023/12/04 11:00:36;;;;;;;6.28;4.03;;;18.20;34.60;;;;;;6248657;22;45305;-61
2023/12/04 11:03:05;;;;;;;7.32;4.50;;;18.20;34.60;;;;;;6248616;22;45261;-61
2023/12/04 11:05:33;;;;;;;4.90;4.03;;;18.20;34.60;;;;;;6247905;22;46302;-61
2023/12/04 11:08:01;;;;;;;6.93;4.50;;;18.20;34.70;;;;;;6248092;22;45356;-61
2023/12/04 11:10:28;;;;;;;6.22;4.10;;;18.20;34.70;;;;;;6248324;22;45435;-61
2023/12/04 11:12:58;;;;;;;7.47;4.55;;;18.20;34.70;;;;;;6248627;22;45362;-61
2023/12/04 11:15:27;;;;;;;6.07;4.15;;;18.20;34.70;;;;;;6247869;22;45269;-61
2023/12/04 11:17:59;;;;;;;7.75;4.70;;;18.20;35.40;;;;;;6248146;22;45202;-61
2023/12/04 11:20:27;;;;;;;5.38;4.10;;;18.20;34.80;;;;;;6248512;22;45210;-61
2023/12/04 11:22:53;;;;;;;4.63;3.50;;;18.20;34.80;;;;;;6248604;22;45294;-61
2023/12/04 11:25:23;;;;;;;7.93;4.85;;;18.20;34.80;;;;;;6247583;22;45226;-61
2023/12/04 11:27:50;;;;;;;6.30;4.45;;;18.20;34.80;;;;;;6247969;22;45239;-61
2023/12/04 11:30:17;;;;;;;6.13;4.03;;;18.20;34.70;;;;;;6248370;22;45304;-61
2023/12/04 11:32:46;;;;;;;7.32;4.32;;;18.20;34.70;;;;;;6248476;22;45274;-61
2023/12/04 11:35:17;;;;;;;6.00;4.05;;;18.30;34.70;;;;;;6247686;22;45472;-61
2023/12/04 11:37:44;;;;;;;6.47;4.35;;;18.30;34.70;;;;;;6248021;22;45258;-61
2023/12/04 11:40:13;;;;;;;5.13;3.85;;;18.30;34.70;;;;;;6248179;22;45266;-61
2023/12/04 11:42:40;;;;;;;7.72;4.93;;;18.30;34.80;;;;;;6248322;22;45271;-61
2023/12/04 11:45:07;;;;;;;5.93;4.43;;;18.30;34.80;;;;;;6247781;22;45448;-61
2023/12/04 11:47:51;;;;;;;5.22;4.30;;;18.30;34.80;;;;;;6247622;22;45268;-61
2023/12/04 11:50:18;;;;;;;6.00;4.53;;;18.30;34.70;;;;;;6248199;22;45369;-61
2023/12/04 11:52:45;;;;;;;6.97;4.60;;;18.30;34.80;;;;;;6248159;22;45372;-62
2023/12/04 11:55:12;;;;;;;8.27;4.78;;;18.20;35.40;;;;;;6247761;22;46941;-61
2023/12/04 11:57:39;;;;;;;10.32;4.88;;;18.30;34.90;;;;;;6247853;22;45350;-61
2023/12/04 12:00:14;;;;;;;5.93;4.20;;;18.30;34.90;;;;;;6248224;22;45261;-61
2023/12/04 12:02:41;;;;;;;7.63;4.57;;;18.30;34.90;;;;;;6248285;22;45222;-61
2023/12/04 12:05:09;;;;;;;9.02;5.00;;;18.30;34.90;;;;;;6247291;22;47325;-61
2023/12/04 12:07:36;;;;;;;6.22;4.63;;;18.30;34.90;;;;;;6248000;22;45190;-62
2023/12/04 12:10:03;;;;;;;10.80;4.72;;;18.30;34.90;;;;;;6247870;22;45250;-61
2023/12/04 12:12:30;;;;;;;78.53;11.07;;;18.30;35.00;;;;;;6248205;22;45266;-64
2023/12/04 12:14:57;;;;;;;11.25;5.65;;;18.30;36.30;;;;;;6247930;22;47556;-73
2023/12/04 12:17:24;;;;;;;18.27;5.32;;;18.40;35.80;;;;;;6248414;22;45349;-70
2023/12/04 12:19:50;;;;;;;13.68;5.70;;;18.50;35.20;;;;;;6248006;22;45348;-64
2023/12/04 12:22:18;;;;;;;15.07;5.90;;;18.60;35.40;;;;;;6248085;22;45302;-62
2023/12/04 12:24:46;;;;;;;7.68;4.60;;;18.70;35.10;;;;;;6247619;22;46275;-61
2023/12/04 12:27:13;;;;;;;12.55;6.97;;;18.70;35.00;;;;;;6247563;22;45368;-62
2023/12/04 12:29:39;;;;;;;13.20;6.10;;;18.60;34.40;;;;;;6247714;22;45220;-61
2023/12/04 12:32:07;;;;;;;6.93;5.20;;;18.60;34.90;;;;;;6248057;22;45209;-61
2023/12/04 12:34:35;;;;;;;13.02;6.00;;;18.60;35.00;;;;;;6247314;22;46250;-62
2023/12/04 12:37:03;;;;;;;9.18;5.82;;;18.70;35.20;;;;;;6247429;22;45439;-61
2023/12/04 12:39:31;;;;;;;9.15;5.68;;;18.70;35.00;;;;;;6247494;22;45374;-61
2023/12/04 12:41:58;;;;;;;9.73;6.00;;;18.70;35.00;;;;;;6248043;22;45356;-62
2023/12/04 12:44:25;;;;;;;9.52;6.25;;;18.80;35.10;;;;;;6247634;22;46266;-66